Time;durP1;ratioP1;P1;durP2;ratioP2;P2;SDS_P1;SDS_P2;PMS_P1;PMS_P2;Temp;Humidity;BMP_temperature;BMP_pressure;BME280_temperature;BME280_humidity;BME280_pressure;Samples;Min_cycle;Max_cycle;Signal;HPM_P1;HPM_P2
2022/01/16 00:01:56;;;;;;;19.80;12.63;;;;;;;;;;4984235;28;20578;-69
2022/01/16 00:04:24;;;;;;;21.57;11.87;;;;;;;;;;4986351;28;21009;-69
2022/01/16 00:06:52;;;;;;;25.23;13.70;;;;;;;;;;4985735;28;20467;-69
2022/01/16 00:09:19;;;;;;;23.73;13.70;;;;;;;;;;4981593;28;20540;-69
2022/01/16 00:11:46;;;;;;;25.73;13.47;;;;;;;;;;4979765;28;20462;-69
2022/01/16 00:14:15;;;;;;;24.90;12.80;;;;;;;;;;5001470;28;21028;-69
2022/01/16 00:16:42;;;;;;;21.60;13.53;;;;;;;;;;4978956;28;20543;-69
2022/01/16 00:19:09;;;;;;;25.10;13.03;;;;;;;;;;4983858;28;20456;-69
2022/01/16 00:21:39;;;;;;;22.87;11.80;;;;;;;;;;4985738;28;20503;-68
2022/01/16 00:24:07;;;;;;;21.00;13.07;;;;;;;;;;4983179;28;20463;-69
2022/01/16 00:26:35;;;;;;;27.40;14.03;;;;;;;;;;4979170;28;20480;-69
2022/01/16 00:29:03;;;;;;;23.93;13.57;;;;;;;;;;4982985;28;20802;-69
2022/01/16 00:31:31;;;;;;;20.20;12.30;;;;;;;;;;4986602;28;20446;-69
2022/01/16 00:33:58;;;;;;;26.77;13.93;;;;;;;;;;4983550;28;20545;-69
2022/01/16 00:36:25;;;;;;;25.27;13.97;;;;;;;;;;4991803;28;20569;-69
2022/01/16 00:38:54;;;;;;;24.70;13.30;;;;;;;;;;4982179;28;20468;-69
2022/01/16 00:41:22;;;;;;;22.87;13.50;;;;;;;;;;4986493;28;20485;-69
2022/01/16 00:43:49;;;;;;;24.43;13.50;;;;;;;;;;4988960;28;20453;-69
2022/01/16 00:46:17;;;;;;;21.63;13.13;;;;;;;;;;4978740;28;20453;-69
2022/01/16 00:48:45;;;;;;;25.20;12.83;;;;;;;;;;4981074;28;20451;-68
2022/01/16 00:51:13;;;;;;;20.80;13.53;;;;;;;;;;4986215;28;20461;-68
2022/01/16 00:53:42;;;;;;;25.60;13.57;;;;;;;;;;4983574;28;20546;-68
2022/01/16 00:56:09;;;;;;;24.40;13.17;;;;;;;;;;4978740;28;20457;-68
2022/01/16 00:58:37;;;;;;;28.27;13.90;;;;;;;;;;4980137;28;20553;-68
2022/01/16 01:01:04;;;;;;;21.90;12.87;;;;;;;;;;4985653;28;20488;-68
2022/01/16 01:03:32;;;;;;;20.77;12.10;;;;;;;;;;4985865;28;20449;-68
2022/01/16 01:06:00;;;;;;;25.87;14.30;;;;;;;;;;4978160;28;20449;-69
2022/01/16 01:08:29;;;;;;;22.13;12.70;;;;;;;;;;4979248;28;20454;-70
2022/01/16 01:10:57;;;;;;;25.00;13.40;;;;;;;;;;4978970;28;20592;-70
2022/01/16 01:13:31;;;;;;;24.50;14.03;;;;;;;;;;4998315;28;20448;-69
2022/01/16 01:16:02;;;;;;;23.57;13.77;;;;;;;;;;4983313;28;20441;-68
2022/01/16 01:18:30;;;;;;;25.90;14.10;;;;;;;;;;4985227;28;20441;-69
2022/01/16 01:20:58;;;;;;;20.17;13.70;;;;;;;;;;4980981;28;21171;-68
2022/01/16 01:23:26;;;;;;;23.33;13.93;;;;;;;;;;4978895;28;20519;-69
2022/01/16 01:25:54;;;;;;;24.63;13.53;;;;;;;;;;4981404;28;20485;-70
2022/01/16 01:28:21;;;;;;;26.10;14.10;;;;;;;;;;4984852;28;20545;-68
2022/01/16 01:30:48;;;;;;;24.60;12.80;;;;;;;;;;4982162;28;20471;-68
2022/01/16 01:33:18;;;;;;;22.80;11.97;;;;;;;;;;4978796;28;20480;-69
2022/01/16 01:35:46;;;;;;;21.87;13.13;;;;;;;;;;4991399;28;20447;-68
2022/01/16 01:38:17;;;;;;;24.97;12.17;;;;;;;;;;4986105;28;20446;-68
2022/01/16 01:40:47;;;;;;;26.60;13.93;;;;;;;;;;4984109;28;21008;-68
2022/01/16 01:51:31;;;;;;;23.00;13.30;;;;;;;;;;4979826;28;20464;-68
2022/01/16 01:53:59;;;;;;;25.97;14.37;;;;;;;;;;4978196;28;20449;-68
2022/01/16 01:56:28;;;;;;;24.17;14.43;;;;;;;;;;4982399;28;20510;-68
2022/01/16 01:58:56;;;;;;;24.20;14.73;;;;;;;;;;4984369;28;20445;-68
2022/01/16 02:01:24;;;;;;;28.60;14.03;;;;;;;;;;4980926;28;20523;-68
2022/01/16 02:03:51;;;;;;;27.90;15.40;;;;;;;;;;4977240;28;20453;-68
2022/01/16 02:06:19;;;;;;;25.40;14.17;;;;;;;;;;4981766;28;20549;-68
2022/01/16 02:08:47;;;;;;;24.40;13.53;;;;;;;;;;4984308;28;20449;-68
2022/01/16 02:11:15;;;;;;;23.50;14.50;;;;;;;;;;4982652;28;20812;-68
2022/01/16 02:13:53;;;;;;;27.43;14.00;;;;;;;;;;4994409;28;20453;-68
2022/01/16 02:30:44;;;;;;;26.23;13.00;;;;;;;;;;4988560;28;20421;-68
2022/01/16 02:33:24;;;;;;;25.37;14.87;;;;;;;;;;4988579;28;20442;-69
2022/01/16 02:35:53;;;;;;;25.10;13.60;;;;;;;;;;4988284;28;20456;-68
2022/01/16 02:38:22;;;;;;;24.60;14.33;;;;;;;;;;4989081;28;20458;-68
2022/01/16 02:40:50;;;;;;;23.00;13.43;;;;;;;;;;4987516;28;20536;-68
2022/01/16 02:43:18;;;;;;;27.17;13.77;;;;;;;;;;4987125;28;20449;-68
2022/01/16 02:45:58;;;;;;;26.90;13.20;;;;;;;;;;4980986;28;20457;-68
2022/01/16 02:48:26;;;;;;;25.57;13.73;;;;;;;;;;4983347;28;20879;-68
2022/01/16 02:50:53;;;;;;;26.77;13.60;;;;;;;;;;4980740;28;20450;-68
2022/01/16 02:53:21;;;;;;;27.23;13.40;;;;;;;;;;4986193;28;20461;-68
2022/01/16 02:55:49;;;;;;;29.40;14.93;;;;;;;;;;4987184;28;20475;-68
2022/01/16 02:58:16;;;;;;;26.20;17.10;;;;;;;;;;4984287;28;20457;-68
2022/01/16 03:00:43;;;;;;;27.97;16.20;;;;;;;;;;4980814;28;20449;-68
2022/01/16 03:03:10;;;;;;;28.13;14.37;;;;;;;;;;4985013;28;20454;-68
2022/01/16 03:05:38;;;;;;;25.30;14.00;;;;;;;;;;4987432;28;20453;-68
2022/01/16 03:08:06;;;;;;;26.17;14.93;;;;;;;;;;4984048;28;20808;-68
2022/01/16 03:13:27;;;;;;;28.67;15.87;;;;;;;;;;4986242;28;20440;-69
2022/01/16 03:15:55;;;;;;;22.43;13.80;;;;;;;;;;4973798;28;20457;-68
2022/01/16 03:23:51;;;;;;;25.57;15.30;;;;;;;;;;4980093;28;20988;-68
2022/01/16 03:26:19;;;;;;;25.43;15.33;;;;;;;;;;4981257;28;20513;-68
2022/01/16 03:28:46;;;;;;;22.63;14.00;;;;;;;;;;4985903;28;20454;-68
2022/01/16 03:31:14;;;;;;;24.13;14.27;;;;;;;;;;4987020;28;20460;-68
2022/01/16 03:33:41;;;;;;;25.60;14.90;;;;;;;;;;4980425;28;20536;-68
2022/01/16 03:36:08;;;;;;;24.80;13.90;;;;;;;;;;4993233;28;20492;-68
2022/01/16 03:38:37;;;;;;;22.53;14.20;;;;;;;;;;4985875;28;20454;-68
2022/01/16 03:41:04;;;;;;;22.00;13.63;;;;;;;;;;4987590;28;20479;-68
2022/01/16 03:43:33;;;;;;;27.30;15.10;;;;;;;;;;4988053;28;20481;-68
2022/01/16 03:46:01;;;;;;;26.23;15.83;;;;;;;;;;4979299;28;20454;-68
2022/01/16 03:48:28;;;;;;;27.00;14.93;;;;;;;;;;4984910;28;20544;-68
2022/01/16 03:50:55;;;;;;;21.73;13.77;;;;;;;;;;4986350;28;21004;-68
2022/01/16 03:53:22;;;;;;;25.50;15.40;;;;;;;;;;4982825;28;21048;-68
2022/01/16 03:55:49;;;;;;;30.80;14.50;;;;;;;;;;4979111;28;20469;-68
2022/01/16 03:58:17;;;;;;;25.40;15.53;;;;;;;;;;4984172;28;20529;-70
2022/01/16 04:00:45;;;;;;;23.97;14.17;;;;;;;;;;4986250;28;20457;-68
2022/01/16 04:03:12;;;;;;;25.70;13.30;;;;;;;;;;4983359;28;20490;-68
2022/01/16 04:05:39;;;;;;;20.80;13.70;;;;;;;;;;4979507;28;20543;-70
2022/01/16 04:08:07;;;;;;;24.43;14.93;;;;;;;;;;4982184;28;20456;-68
2022/01/16 04:10:34;;;;;;;21.10;12.57;;;;;;;;;;4986371;28;20541;-68
2022/01/16 04:13:03;;;;;;;18.53;12.50;;;;;;;;;;4987706;28;20452;-68
2022/01/16 04:15:33;;;;;;;23.13;12.87;;;;;;;;;;4991319;28;20458;-68
2022/01/16 04:18:03;;;;;;;23.63;13.03;;;;;;;;;;4984491;28;20480;-68
2022/01/16 04:20:31;;;;;;;20.10;13.00;;;;;;;;;;4980209;28;20451;-68
2022/01/16 04:22:58;;;;;;;20.17;12.70;;;;;;;;;;4980688;28;20489;-68
2022/01/16 04:25:25;;;;;;;24.47;15.27;;;;;;;;;;4986322;28;20563;-68
2022/01/16 04:27:52;;;;;;;20.50;14.37;;;;;;;;;;4984650;28;20883;-68
2022/01/16 04:30:19;;;;;;;19.93;12.83;;;;;;;;;;4979537;28;20540;-68
2022/01/16 04:32:46;;;;;;;22.27;12.97;;;;;;;;;;4979683;28;20501;-68
2022/01/16 04:35:15;;;;;;;22.20;13.53;;;;;;;;;;4992430;28;20448;-68
2022/01/16 04:37:42;;;;;;;18.40;12.77;;;;;;;;;;4990897;28;20463;-68
2022/01/16 04:40:10;;;;;;;26.43;14.33;;;;;;;;;;4980460;28;20457;-68
2022/01/16 04:45:23;;;;;;;20.70;12.97;;;;;;;;;;4982059;28;20481;-70
2022/01/16 04:47:51;;;;;;;20.40;13.07;;;;;;;;;;4984616;28;20542;-68
2022/01/16 04:50:21;;;;;;;25.07;14.20;;;;;;;;;;4983992;28;20539;-69
2022/01/16 04:52:49;;;;;;;22.57;14.30;;;;;;;;;;4978513;28;20547;-68
2022/01/16 04:55:17;;;;;;;24.30;11.93;;;;;;;;;;4980499;28;20493;-68
2022/01/16 04:57:44;;;;;;;18.07;11.77;;;;;;;;;;4985024;28;20454;-67
2022/01/16 05:00:13;;;;;;;20.23;11.90;;;;;;;;;;4984873;28;20548;-68
2022/01/16 05:02:40;;;;;;;16.43;12.00;;;;;;;;;;4978650;28;20814;-68
2022/01/16 05:05:07;;;;;;;21.83;12.97;;;;;;;;;;4979924;28;20469;-68
2022/01/16 05:07:36;;;;;;;23.50;12.30;;;;;;;;;;4979066;28;20536;-68
2022/01/16 05:10:03;;;;;;;21.27;12.33;;;;;;;;;;4978815;28;20545;-67
2022/01/16 05:12:34;;;;;;;20.97;13.70;;;;;;;;;;4991307;28;20490;-68
2022/01/16 05:17:47;;;;;;;20.73;14.83;;;;;;;;;;4981864;28;20508;-67
2022/01/16 05:20:14;;;;;;;17.73;11.43;;;;;;;;;;4978731;28;20484;-69
2022/01/16 05:22:43;;;;;;;19.53;12.20;;;;;;;;;;4980300;28;20497;-69
2022/01/16 05:25:13;;;;;;;20.87;12.60;;;;;;;;;;4985434;28;20504;-69
2022/01/16 05:27:40;;;;;;;19.97;12.10;;;;;;;;;;4982993;28;20452;-69
2022/01/16 05:30:08;;;;;;;18.87;12.20;;;;;;;;;;4978521;28;20470;-69
2022/01/16 05:32:35;;;;;;;19.10;11.90;;;;;;;;;;4979426;28;20448;-68
2022/01/16 05:35:02;;;;;;;22.33;12.67;;;;;;;;;;4991405;28;20449;-68
2022/01/16 05:37:30;;;;;;;19.80;12.90;;;;;;;;;;4991371;28;20568;-68
2022/01/16 05:39:58;;;;;;;19.73;12.73;;;;;;;;;;4977920;28;20449;-68
2022/01/16 05:42:25;;;;;;;21.47;14.33;;;;;;;;;;4983531;28;21282;-68
2022/01/16 05:44:53;;;;;;;23.47;11.60;;;;;;;;;;4984371;28;20528;-68
2022/01/16 05:47:20;;;;;;;20.93;12.93;;;;;;;;;;4971924;28;20450;-68
2022/01/16 05:49:47;;;;;;;22.37;14.20;;;;;;;;;;4971559;28;20536;-68
2022/01/16 05:52:14;;;;;;;19.97;12.77;;;;;;;;;;4971956;28;20461;-68
2022/01/16 05:54:41;;;;;;;21.70;13.20;;;;;;;;;;4971846;28;20965;-69
2022/01/16 05:57:10;;;;;;;24.40;13.67;;;;;;;;;;4977042;28;20960;-69
2022/01/16 05:59:37;;;;;;;18.37;11.50;;;;;;;;;;4982808;28;20442;-68
2022/01/16 06:02:05;;;;;;;22.67;13.77;;;;;;;;;;4982318;28;20999;-68
2022/01/16 06:04:32;;;;;;;18.77;12.67;;;;;;;;;;4972897;28;20454;-68
2022/01/16 06:06:59;;;;;;;24.23;12.93;;;;;;;;;;4970980;28;20952;-68
2022/01/16 06:09:26;;;;;;;20.60;12.60;;;;;;;;;;4972118;28;20457;-69
2022/01/16 06:11:55;;;;;;;20.33;13.10;;;;;;;;;;4971558;28;20822;-68
2022/01/16 06:14:23;;;;;;;24.90;13.50;;;;;;;;;;4989552;28;20548;-68
2022/01/16 06:16:51;;;;;;;25.60;14.10;;;;;;;;;;4977499;28;20453;-68
2022/01/16 06:19:18;;;;;;;23.50;12.60;;;;;;;;;;4982022;28;20461;-68
2022/01/16 06:21:46;;;;;;;21.80;12.43;;;;;;;;;;4984574;28;20798;-68
2022/01/16 06:24:13;;;;;;;21.13;12.53;;;;;;;;;;4981307;28;20933;-68
2022/01/16 06:26:40;;;;;;;20.40;13.23;;;;;;;;;;4977329;28;20491;-68
2022/01/16 06:29:07;;;;;;;23.07;12.50;;;;;;;;;;4981083;28;20453;-68
2022/01/16 06:31:36;;;;;;;21.20;13.00;;;;;;;;;;4985062;28;20560;-69
2022/01/16 06:34:05;;;;;;;20.23;12.03;;;;;;;;;;4982808;28;20798;-68
2022/01/16 06:36:33;;;;;;;24.33;14.57;;;;;;;;;;4990592;28;20966;-69
2022/01/16 06:39:00;;;;;;;22.37;13.00;;;;;;;;;;4979924;28;20545;-68
2022/01/16 06:41:28;;;;;;;25.30;13.60;;;;;;;;;;4984314;28;21009;-69
2022/01/16 06:43:55;;;;;;;19.20;12.10;;;;;;;;;;4987880;28;20710;-68
2022/01/16 06:46:22;;;;;;;18.60;11.90;;;;;;;;;;4977455;28;20556;-69
2022/01/16 06:48:51;;;;;;;19.03;12.20;;;;;;;;;;4978474;28;20454;-68
2022/01/16 06:51:19;;;;;;;19.10;12.60;;;;;;;;;;4984308;28;20961;-68
2022/01/16 06:53:47;;;;;;;21.43;13.10;;;;;;;;;;4983439;28;20463;-68
2022/01/16 06:56:14;;;;;;;19.57;11.43;;;;;;;;;;4990068;28;20456;-69
2022/01/16 06:58:41;;;;;;;19.40;12.37;;;;;;;;;;4989781;28;20449;-68
2022/01/16 07:01:09;;;;;;;20.43;12.67;;;;;;;;;;4990894;28;20528;-68
2022/01/16 07:03:36;;;;;;;20.40;12.37;;;;;;;;;;4990374;28;20509;-68
2022/01/16 07:06:05;;;;;;;18.43;12.10;;;;;;;;;;4994056;28;20460;-69
2022/01/16 07:08:33;;;;;;;18.67;11.70;;;;;;;;;;4994254;28;20465;-68
2022/01/16 07:11:01;;;;;;;18.97;13.70;;;;;;;;;;4993969;28;20531;-68
2022/01/16 07:13:29;;;;;;;20.10;12.57;;;;;;;;;;4993937;28;20551;-68
2022/01/16 07:15:56;;;;;;;16.87;11.47;;;;;;;;;;4985201;28;20449;-68
2022/01/16 07:18:24;;;;;;;22.33;12.70;;;;;;;;;;4987976;28;20559;-69
2022/01/16 07:20:51;;;;;;;17.20;12.27;;;;;;;;;;4982727;28;20453;-68
2022/01/16 07:23:20;;;;;;;22.53;13.63;;;;;;;;;;4980975;28;20577;-68
2022/01/16 07:25:47;;;;;;;26.13;14.47;;;;;;;;;;4983890;28;20841;-68
2022/01/16 07:28:15;;;;;;;20.27;12.30;;;;;;;;;;4987842;28;20451;-68
2022/01/16 07:30:43;;;;;;;17.07;12.30;;;;;;;;;;4983392;28;20449;-68
2022/01/16 07:33:10;;;;;;;18.93;10.33;;;;;;;;;;4981059;28;20811;-68
2022/01/16 07:35:38;;;;;;;19.00;13.20;;;;;;;;;;4992747;28;20930;-68
2022/01/16 07:38:05;;;;;;;19.90;10.77;;;;;;;;;;4990246;28;20461;-70
2022/01/16 07:40:35;;;;;;;20.33;14.10;;;;;;;;;;4984763;28;20548;-69
2022/01/16 07:43:02;;;;;;;21.23;12.87;;;;;;;;;;4986194;28;20498;-69
2022/01/16 07:45:29;;;;;;;18.60;12.00;;;;;;;;;;4982461;28;20457;-69
2022/01/16 07:47:56;;;;;;;19.57;12.30;;;;;;;;;;4986920;28;20541;-69
2022/01/16 07:50:24;;;;;;;16.40;11.57;;;;;;;;;;4986061;28;20949;-69
2022/01/16 07:52:51;;;;;;;18.27;12.90;;;;;;;;;;4979980;28;20465;-69
2022/01/16 07:55:22;;;;;;;20.53;13.13;;;;;;;;;;4981734;28;20552;-69
2022/01/16 07:57:51;;;;;;;18.80;11.20;;;;;;;;;;4986488;28;20457;-69
2022/01/16 08:00:19;;;;;;;18.23;11.07;;;;;;;;;;4986970;28;20460;-69
2022/01/16 08:02:46;;;;;;;19.67;12.73;;;;;;;;;;4980291;28;20486;-68
2022/01/16 08:05:15;;;;;;;18.70;13.17;;;;;;;;;;4980388;28;20455;-69
2022/01/16 08:07:42;;;;;;;19.70;12.53;;;;;;;;;;4984359;28;20816;-68
2022/01/16 08:10:09;;;;;;;20.53;12.90;;;;;;;;;;4986699;28;20945;-69
2022/01/16 08:12:37;;;;;;;16.20;11.70;;;;;;;;;;4985299;28;20482;-69
2022/01/16 08:15:06;;;;;;;22.97;12.80;;;;;;;;;;4996869;28;20449;-68
2022/01/16 08:17:35;;;;;;;18.83;12.07;;;;;;;;;;4981939;28;20462;-69
2022/01/16 08:20:03;;;;;;;20.83;13.10;;;;;;;;;;4979170;28;20462;-69
2022/01/16 08:22:30;;;;;;;18.13;11.53;;;;;;;;;;4983901;28;20446;-69
2022/01/16 08:24:58;;;;;;;17.87;11.10;;;;;;;;;;4985091;28;20480;-69
2022/01/16 08:27:25;;;;;;;15.80;11.57;;;;;;;;;;4982674;28;20433;-69
2022/01/16 08:29:52;;;;;;;17.87;11.93;;;;;;;;;;4979491;28;20543;-69
2022/01/16 08:32:20;;;;;;;20.17;12.60;;;;;;;;;;4983433;28;20459;-69
2022/01/16 08:34:48;;;;;;;16.33;12.53;;;;;;;;;;4989439;28;20532;-69
2022/01/16 08:37:15;;;;;;;20.53;13.43;;;;;;;;;;4992628;28;20472;-69
2022/01/16 08:39:42;;;;;;;17.77;13.00;;;;;;;;;;4980101;28;20481;-70
2022/01/16 08:42:09;;;;;;;20.70;12.47;;;;;;;;;;4991697;28;21001;-69
2022/01/16 08:44:38;;;;;;;16.37;12.10;;;;;;;;;;5004943;28;20513;-68
2022/01/16 08:47:06;;;;;;;18.80;12.83;;;;;;;;;;4994307;28;20476;-69
2022/01/16 08:49:34;;;;;;;20.33;13.07;;;;;;;;;;4988576;28;20536;-70
2022/01/16 08:52:01;;;;;;;16.70;11.87;;;;;;;;;;4982042;28;20820;-69
2022/01/16 08:54:29;;;;;;;23.03;14.60;;;;;;;;;;4986317;28;20464;-69
2022/01/16 08:56:56;;;;;;;20.50;13.40;;;;;;;;;;4984094;28;20663;-69
2022/01/16 08:59:23;;;;;;;17.47;13.63;;;;;;;;;;4979343;28;20449;-69
2022/01/16 09:01:50;;;;;;;22.80;14.57;;;;;;;;;;4979315;28;20541;-69
2022/01/16 09:04:17;;;;;;;20.67;12.40;;;;;;;;;;4985831;28;20601;-69
2022/01/16 09:06:46;;;;;;;16.87;11.90;;;;;;;;;;4984335;28;20953;-69
2022/01/16 09:09:13;;;;;;;16.60;11.73;;;;;;;;;;4979206;28;20453;-69
2022/01/16 09:11:40;;;;;;;17.90;12.83;;;;;;;;;;4979260;28;20460;-69
2022/01/16 09:14:07;;;;;;;21.67;13.53;;;;;;;;;;5001820;28;20535;-69
2022/01/16 09:16:35;;;;;;;19.67;12.70;;;;;;;;;;4978975;28;20453;-69
2022/01/16 09:19:02;;;;;;;19.53;13.97;;;;;;;;;;4985226;28;20533;-69
2022/01/16 09:21:29;;;;;;;21.03;12.00;;;;;;;;;;4985221;28;20535;-69
2022/01/16 09:23:58;;;;;;;19.13;12.53;;;;;;;;;;4978427;28;20559;-69
2022/01/16 09:26:26;;;;;;;20.90;13.00;;;;;;;;;;4977684;28;20584;-69
2022/01/16 09:28:53;;;;;;;19.83;12.30;;;;;;;;;;4983350;28;20459;-69
2022/01/16 09:31:20;;;;;;;17.23;13.07;;;;;;;;;;4985449;28;20481;-69
2022/01/16 09:33:48;;;;;;;19.90;13.07;;;;;;;;;;4979928;28;20540;-69
2022/01/16 09:36:15;;;;;;;17.57;12.10;;;;;;;;;;4990954;28;20484;-69
2022/01/16 09:38:43;;;;;;;18.77;13.17;;;;;;;;;;4982041;28;21126;-69
2022/01/16 09:41:11;;;;;;;15.20;11.40;;;;;;;;;;4985345;28;20462;-69
2022/01/16 09:43:38;;;;;;;16.10;12.53;;;;;;;;;;4985884;28;20572;-69
2022/01/16 09:46:06;;;;;;;20.17;13.77;;;;;;;;;;4977828;28;20458;-69
2022/01/16 09:48:33;;;;;;;15.97;12.20;;;;;;;;;;4981579;28;20486;-69
2022/01/16 09:51:01;;;;;;;19.97;14.43;;;;;;;;;;4985571;28;20854;-69
2022/01/16 09:53:28;;;;;;;18.70;12.70;;;;;;;;;;4982662;28;20459;-70
2022/01/16 09:55:56;;;;;;;19.27;12.90;;;;;;;;;;4977882;28;20833;-69
2022/01/16 09:58:24;;;;;;;17.33;12.20;;;;;;;;;;4981072;28;20541;-69
2022/01/16 10:00:53;;;;;;;19.97;12.83;;;;;;;;;;4984322;28;20454;-69
2022/01/16 10:03:36;;;;;;;19.50;13.83;;;;;;;;;;4983352;28;20887;-69
2022/01/16 10:06:11;;;;;;;17.33;11.37;;;;;;;;;;4983902;28;20449;-69
2022/01/16 10:08:39;;;;;;;17.87;11.87;;;;;;;;;;4984247;28;20799;-68
2022/01/16 10:11:28;;;;;;;16.43;11.43;;;;;;;;;;4980677;28;20460;-69
2022/01/16 10:14:00;;;;;;;17.73;12.07;;;;;;;;;;4996342;28;21196;-69
2022/01/16 10:16:28;;;;;;;16.40;11.87;;;;;;;;;;4978995;28;20529;-69
2022/01/16 10:18:56;;;;;;;15.77;11.77;;;;;;;;;;4984212;28;20721;-70
2022/01/16 10:21:34;;;;;;;21.70;13.33;;;;;;;;;;4984728;28;20540;-70
2022/01/16 10:24:15;;;;;;;17.93;11.87;;;;;;;;;;4983072;28;20496;-71
2022/01/16 10:26:43;;;;;;;19.23;12.27;;;;;;;;;;4983535;28;20572;-69
2022/01/16 10:29:16;;;;;;;24.03;13.87;;;;;;;;;;4981984;28;20884;-69
2022/01/16 10:31:43;;;;;;;18.70;12.40;;;;;;;;;;4977141;28;20448;-68
2022/01/16 10:34:24;;;;;;;20.10;13.30;;;;;;;;;;4980297;28;20544;-68
2022/01/16 10:36:51;;;;;;;16.97;12.37;;;;;;;;;;4977786;28;20456;-68
2022/01/16 10:39:18;;;;;;;17.50;11.87;;;;;;;;;;4978852;28;20825;-70
2022/01/16 10:41:46;;;;;;;21.30;13.47;;;;;;;;;;4986977;28;20938;-68
2022/01/16 10:44:28;;;;;;;19.87;13.17;;;;;;;;;;4993979;28;20491;-68
2022/01/16 10:46:57;;;;;;;19.00;12.27;;;;;;;;;;4981719;28;20484;-71
2022/01/16 10:49:24;;;;;;;22.00;12.93;;;;;;;;;;4981391;28;20542;-68
2022/01/16 10:52:05;;;;;;;16.53;12.00;;;;;;;;;;4984478;28;20814;-69
2022/01/16 10:54:33;;;;;;;19.90;12.00;;;;;;;;;;4987965;28;20938;-69
2022/01/16 10:57:18;;;;;;;20.77;13.00;;;;;;;;;;4986218;28;20959;-69
2022/01/16 10:59:45;;;;;;;20.20;13.30;;;;;;;;;;4986022;28;20434;-68
2022/01/16 11:02:14;;;;;;;18.70;13.50;;;;;;;;;;4988482;28;20820;-69
2022/01/16 11:04:41;;;;;;;19.20;12.53;;;;;;;;;;4982701;28;20492;-69
2022/01/16 11:07:10;;;;;;;22.50;13.50;;;;;;;;;;4980958;28;20518;-69
2022/01/16 11:09:37;;;;;;;18.50;13.10;;;;;;;;;;4984529;28;20827;-68
2022/01/16 11:12:04;;;;;;;20.33;16.10;;;;;;;;;;4987595;28;20454;-68
2022/01/16 11:14:32;;;;;;;19.90;14.63;;;;;;;;;;5003899;28;20489;-69
2022/01/16 11:17:00;;;;;;;19.40;14.60;;;;;;;;;;4980290;28;20449;-69
2022/01/16 11:19:34;;;;;;;20.47;14.50;;;;;;;;;;4983810;28;20546;-69
2022/01/16 11:22:04;;;;;;;20.67;14.47;;;;;;;;;;4988193;28;20449;-69
2022/01/16 11:24:46;;;;;;;24.03;14.43;;;;;;;;;;4986675;28;20493;-69
2022/01/16 11:27:16;;;;;;;18.50;12.93;;;;;;;;;;4988912;28;20457;-69
2022/01/16 11:29:44;;;;;;;19.33;13.30;;;;;;;;;;5002152;28;20445;-72
2022/01/16 11:32:11;;;;;;;20.53;14.87;;;;;;;;;;5000244;28;20460;-69
2022/01/16 11:34:39;;;;;;;25.40;16.40;;;;;;;;;;4984980;28;20793;-68
2022/01/16 11:37:07;;;;;;;23.50;16.47;;;;;;;;;;4985185;28;20473;-69
2022/01/16 11:39:35;;;;;;;22.27;16.57;;;;;;;;;;4987233;28;20867;-69
2022/01/16 11:42:04;;;;;;;24.83;14.87;;;;;;;;;;4984274;28;20448;-69
2022/01/16 11:44:32;;;;;;;24.47;15.40;;;;;;;;;;4992777;28;20536;-69
2022/01/16 11:47:00;;;;;;;29.93;15.03;;;;;;;;;;4983614;28;20452;-69
2022/01/16 11:49:34;;;;;;;20.47;14.23;;;;;;;;;;4980206;28;20452;-70
2022/01/16 11:52:09;;;;;;;18.50;14.50;;;;;;;;;;4980914;28;20937;-69
2022/01/16 11:54:38;;;;;;;22.27;16.40;;;;;;;;;;4973623;28;20860;-68
2022/01/16 11:57:29;;;;;;;21.60;14.83;;;;;;;;;;4973746;28;20509;-69
2022/01/16 12:00:08;;;;;;;23.60;15.13;;;;;;;;;;4973987;28;20458;-69
2022/01/16 12:02:38;;;;;;;25.63;14.77;;;;;;;;;;4974296;28;20532;-69
2022/01/16 12:05:07;;;;;;;24.50;15.07;;;;;;;;;;4973590;28;21005;-69
2022/01/16 12:07:49;;;;;;;28.00;16.63;;;;;;;;;;4974221;28;20533;-69
2022/01/16 12:10:35;;;;;;;27.43;15.60;;;;;;;;;;4973593;28;20442;-71
2022/01/16 12:13:02;;;;;;;26.10;15.63;;;;;;;;;;4980607;28;20446;-69
2022/01/16 12:15:32;;;;;;;29.27;15.97;;;;;;;;;;4987855;28;20545;-69
2022/01/16 12:17:59;;;;;;;27.17;16.50;;;;;;;;;;4984995;28;20449;-69
2022/01/16 12:20:27;;;;;;;25.57;16.60;;;;;;;;;;4979835;28;20453;-69
2022/01/16 12:22:57;;;;;;;32.23;16.70;;;;;;;;;;4980514;28;20557;-69
2022/01/16 12:25:25;;;;;;;23.90;12.80;;;;;;;;;;4985587;28;20600;-69
2022/01/16 12:27:53;;;;;;;21.23;12.77;;;;;;;;;;4985744;28;20492;-69
2022/01/16 12:30:25;;;;;;;30.70;16.27;;;;;;;;;;4980238;28;20532;-69
2022/01/16 12:32:53;;;;;;;24.33;13.87;;;;;;;;;;4978935;28;20454;-69
2022/01/16 12:35:38;;;;;;;26.00;15.90;;;;;;;;;;4987028;28;20540;-69
2022/01/16 12:38:08;;;;;;;23.93;13.63;;;;;;;;;;4958684;28;20465;-68
2022/01/16 12:40:37;;;;;;;25.83;14.30;;;;;;;;;;4983667;28;20883;-68
2022/01/16 12:43:08;;;;;;;21.00;13.27;;;;;;;;;;4983370;28;20548;-68
2022/01/16 12:45:37;;;;;;;22.73;13.40;;;;;;;;;;4982181;28;20474;-69
2022/01/16 12:48:04;;;;;;;20.90;13.10;;;;;;;;;;4979851;28;20492;-68
2022/01/16 12:50:31;;;;;;;21.37;12.17;;;;;;;;;;4979832;28;20885;-71
2022/01/16 12:52:59;;;;;;;20.30;12.53;;;;;;;;;;4988124;28;20464;-69
2022/01/16 12:55:28;;;;;;;22.90;14.03;;;;;;;;;;4984046;28;20550;-70
2022/01/16 12:57:55;;;;;;;17.20;12.83;;;;;;;;;;4980745;28;20813;-69
2022/01/16 13:00:23;;;;;;;18.37;10.00;;;;;;;;;;4985164;28;20543;-69
2022/01/16 13:02:53;;;;;;;11.90;7.37;;;;;;;;;;4973717;28;20869;-68
2022/01/16 13:05:21;;;;;;;17.70;9.47;;;;;;;;;;4987314;28;20916;-68
2022/01/16 13:07:48;;;;;;;11.30;6.60;;;;;;;;;;4975074;28;20500;-68
2022/01/16 13:10:15;;;;;;;12.20;7.97;;;;;;;;;;4976585;28;20478;-68
2022/01/16 13:12:44;;;;;;;10.27;6.00;;;;;;;;;;4992815;28;20527;-69
2022/01/16 13:15:12;;;;;;;15.17;8.40;;;;;;;;;;4985345;28;20461;-68
2022/01/16 13:17:39;;;;;;;12.63;7.67;;;;;;;;;;4985849;28;20549;-68
2022/01/16 13:20:14;;;;;;;13.17;7.43;;;;;;;;;;4981525;28;20557;-69
2022/01/16 13:22:41;;;;;;;14.17;7.50;;;;;;;;;;4980550;28;20457;-68
2022/01/16 13:25:10;;;;;;;8.93;7.23;;;;;;;;;;4986119;28;20493;-68
2022/01/16 13:27:38;;;;;;;13.60;7.57;;;;;;;;;;4988728;28;20964;-68
2022/01/16 13:30:10;;;;;;;12.57;8.30;;;;;;;;;;4976202;28;20448;-68
2022/01/16 13:32:38;;;;;;;12.97;7.67;;;;;;;;;;4973283;28;20821;-68
2022/01/16 13:35:06;;;;;;;13.50;7.77;;;;;;;;;;4983685;28;20516;-68
2022/01/16 13:37:34;;;;;;;8.40;5.40;;;;;;;;;;4976001;28;20532;-68
2022/01/16 13:40:02;;;;;;;13.40;7.00;;;;;;;;;;4976446;28;20540;-68
2022/01/16 13:45:30;;;;;;;12.70;6.73;;;;;;;;;;4969846;28;21028;-68
2022/01/16 13:47:59;;;;;;;13.60;8.07;;;;;;;;;;4975769;28;20442;-69
2022/01/16 13:50:27;;;;;;;10.67;6.73;;;;;;;;;;4971254;28;20553;-68
2022/01/16 13:52:55;;;;;;;12.60;8.37;;;;;;;;;;4972077;28;20488;-70
2022/01/16 13:55:23;;;;;;;12.13;7.00;;;;;;;;;;4974895;28;20457;-70
2022/01/16 13:57:50;;;;;;;16.13;8.40;;;;;;;;;;4977330;28;20445;-69
2022/01/16 14:00:19;;;;;;;13.13;8.23;;;;;;;;;;4986168;28;20564;-68
2022/01/16 14:02:48;;;;;;;13.60;7.70;;;;;;;;;;4980820;28;20548;-69
2022/01/16 14:05:23;;;;;;;12.87;8.23;;;;;;;;;;4982485;28;20488;-69
2022/01/16 14:07:50;;;;;;;14.17;9.63;;;;;;;;;;4977360;28;20464;-70
2022/01/16 14:10:32;;;;;;;16.03;8.23;;;;;;;;;;4977200;28;20532;-70
2022/01/16 14:12:59;;;;;;;12.43;6.87;;;;;;;;;;4989921;28;20447;-69
2022/01/16 14:15:27;;;;;;;11.53;7.60;;;;;;;;;;4984226;28;20493;-70
2022/01/16 14:18:06;;;;;;;8.83;6.40;;;;;;;;;;4988901;28;20456;-70
2022/01/16 14:20:48;;;;;;;10.23;7.37;;;;;;;;;;4986852;28;20444;-69
2022/01/16 14:23:15;;;;;;;12.60;6.70;;;;;;;;;;4984306;28;20457;-69
2022/01/16 14:25:43;;;;;;;10.77;7.67;;;;;;;;;;4979527;28;20619;-69
2022/01/16 14:28:10;;;;;;;10.20;6.73;;;;;;;;;;4984675;28;20544;-69
2022/01/16 14:30:37;;;;;;;9.93;5.97;;;;;;;;;;4987317;28;20449;-69
2022/01/16 14:33:06;;;;;;;10.40;6.20;;;;;;;;;;4980700;28;20536;-68
2022/01/16 14:35:33;;;;;;;14.30;8.30;;;;;;;;;;4989054;28;20529;-68
2022/01/16 14:38:00;;;;;;;13.50;6.50;;;;;;;;;;4979726;28;20567;-68
2022/01/16 14:40:27;;;;;;;13.63;7.47;;;;;;;;;;4990106;28;20456;-69
2022/01/16 14:43:03;;;;;;;11.93;7.93;;;;;;;;;;4981665;28;20458;-68
2022/01/16 14:45:30;;;;;;;9.87;6.13;;;;;;;;;;4977302;28;21258;-68
2022/01/16 14:47:57;;;;;;;11.40;7.10;;;;;;;;;;4983550;28;20536;-68
2022/01/16 14:50:26;;;;;;;9.00;6.90;;;;;;;;;;4989376;28;20909;-68
2022/01/16 14:52:53;;;;;;;11.23;6.37;;;;;;;;;;4986497;28;20580;-69
2022/01/16 14:55:20;;;;;;;12.07;6.50;;;;;;;;;;4983160;28;20501;-69
2022/01/16 14:57:47;;;;;;;9.80;7.60;;;;;;;;;;4978376;28;20532;-69
2022/01/16 15:00:15;;;;;;;12.00;7.77;;;;;;;;;;4988168;28;20459;-69
2022/01/16 15:02:42;;;;;;;10.20;7.33;;;;;;;;;;4978380;28;20452;-68
2022/01/16 15:05:11;;;;;;;10.10;6.97;;;;;;;;;;4990696;28;20491;-69
2022/01/16 15:07:40;;;;;;;10.93;7.70;;;;;;;;;;4978316;28;20959;-71